Time;durP1;ratioP1;P1;durP2;ratioP2;P2;SDS_P1;SDS_P2;PMS_P1;PMS_P2;Temp;Humidity;BMP_temperature;BMP_pressure;BME280_temperature;BME280_humidity;BME280_pressure;Samples;Min_cycle;Max_cycle;Signal;HPM_P1;HPM_P2
2022/05/26 00:00:56;;;;;;;1.43;1.17;;;;;;;;;;5055691;28;20442;-79
2022/05/26 00:03:23;;;;;;;1.40;1.33;;;;;;;;;;5056466;28;20450;-78
2022/05/26 00:05:52;;;;;;;1.40;0.90;;;;;;;;;;5056283;28;20472;-78
2022/05/26 00:08:19;;;;;;;1.43;0.77;;;;;;;;;;5055053;28;20553;-77
2022/05/26 00:10:46;;;;;;;2.10;1.30;;;;;;;;;;5056687;28;20449;-76
2022/05/26 00:13:13;;;;;;;1.70;1.30;;;;;;;;;;5057350;28;20521;-79
2022/05/26 00:15:40;;;;;;;3.00;1.50;;;;;;;;;;5055367;28;20452;-78
2022/05/26 00:18:07;;;;;;;1.10;1.00;;;;;;;;;;5055922;28;20495;-78
2022/05/26 00:20:35;;;;;;;1.13;0.90;;;;;;;;;;5056368;28;20453;-79
2022/05/26 00:23:03;;;;;;;1.30;1.20;;;;;;;;;;5053857;28;20479;-78
2022/05/26 00:25:31;;;;;;;1.00;1.00;;;;;;;;;;5055562;28;20544;-79
2022/05/26 00:27:58;;;;;;;1.37;1.07;;;;;;;;;;5056426;28;20549;-78
2022/05/26 00:30:25;;;;;;;1.67;1.13;;;;;;;;;;5058001;28;20473;-78
2022/05/26 00:32:52;;;;;;;1.77;1.17;;;;;;;;;;5057553;28;20453;-79
2022/05/26 00:35:19;;;;;;;1.43;1.00;;;;;;;;;;5057979;28;20453;-77
2022/05/26 00:37:46;;;;;;;1.50;1.40;;;;;;;;;;5058622;28;20460;-78
2022/05/26 00:40:15;;;;;;;1.30;1.20;;;;;;;;;;5056716;28;20466;-79
2022/05/26 00:42:42;;;;;;;1.10;1.10;;;;;;;;;;5059411;28;20441;-77
2022/05/26 00:45:10;;;;;;;1.70;1.57;;;;;;;;;;5067500;28;20470;-78
2022/05/26 00:47:41;;;;;;;1.20;1.03;;;;;;;;;;5066920;28;20453;-77
2022/05/26 00:50:09;;;;;;;2.63;1.20;;;;;;;;;;5064572;28;20458;-77
2022/05/26 00:52:38;;;;;;;2.87;1.30;;;;;;;;;;5063555;28;20430;-78
2022/05/26 00:55:07;;;;;;;1.20;1.10;;;;;;;;;;5062555;28;20450;-77
2022/05/26 00:57:37;;;;;;;1.10;1.00;;;;;;;;;;5060157;28;20758;-78
2022/05/26 01:00:06;;;;;;;2.43;0.90;;;;;;;;;;5055410;28;20485;-80
2022/05/26 01:02:35;;;;;;;1.47;1.30;;;;;;;;;;5055423;28;20441;-77
2022/05/26 01:05:04;;;;;;;1.73;1.17;;;;;;;;;;5055420;28;20485;-78
2022/05/26 01:07:33;;;;;;;1.33;1.10;;;;;;;;;;5059509;28;20433;-78
2022/05/26 01:10:00;;;;;;;1.23;0.80;;;;;;;;;;5059342;28;20862;-79
2022/05/26 01:12:27;;;;;;;1.10;1.10;;;;;;;;;;5055354;28;20449;-78
2022/05/26 01:14:57;;;;;;;0.90;0.90;;;;;;;;;;5054507;28;20445;-79
2022/05/26 01:17:32;;;;;;;1.47;1.10;;;;;;;;;;5053895;28;20445;-79
2022/05/26 01:20:09;;;;;;;3.23;0.93;;;;;;;;;;5054231;28;20947;-79
2022/05/26 01:22:47;;;;;;;1.40;1.30;;;;;;;;;;5054000;28;20465;-79
2022/05/26 01:25:30;;;;;;;0.80;0.80;;;;;;;;;;5054604;28;20584;-79
2022/05/26 01:28:01;;;;;;;3.40;1.00;;;;;;;;;;5053372;28;20461;-78
2022/05/26 01:30:34;;;;;;;2.53;1.20;;;;;;;;;;5054514;28;20448;-78
2022/05/26 01:33:14;;;;;;;1.77;1.03;;;;;;;;;;5056371;28;20434;-78
2022/05/26 01:35:45;;;;;;;0.90;0.90;;;;;;;;;;5053924;28;20453;-77
2022/05/26 01:38:19;;;;;;;1.37;0.90;;;;;;;;;;5054486;28;20609;-77
2022/05/26 01:40:50;;;;;;;1.27;1.00;;;;;;;;;;5053566;28;20515;-78
2022/05/26 01:43:22;;;;;;;0.80;0.73;;;;;;;;;;5053951;28;20561;-78
2022/05/26 01:45:52;;;;;;;1.80;1.27;;;;;;;;;;5053682;28;20527;-77
2022/05/26 01:48:25;;;;;;;4.67;1.13;;;;;;;;;;5053772;28;20534;-78
2022/05/26 01:50:54;;;;;;;1.00;1.00;;;;;;;;;;5053214;28;20449;-78
2022/05/26 01:53:26;;;;;;;1.17;1.07;;;;;;;;;;5052915;28;20434;-78
2022/05/26 01:55:57;;;;;;;1.10;1.00;;;;;;;;;;5057644;28;20453;-78
2022/05/26 01:58:28;;;;;;;1.20;1.20;;;;;;;;;;5058644;28;20478;-78
2022/05/26 02:00:57;;;;;;;1.70;1.10;;;;;;;;;;5053374;28;20468;-78
2022/05/26 02:03:27;;;;;;;2.20;1.00;;;;;;;;;;5053183;28;20441;-79
2022/05/26 02:05:56;;;;;;;0.93;0.93;;;;;;;;;;5054918;28;20485;-77
2022/05/26 02:08:25;;;;;;;2.37;1.03;;;;;;;;;;5056398;28;20468;-77
2022/05/26 02:10:54;;;;;;;0.70;0.70;;;;;;;;;;5053252;28;20438;-79
2022/05/26 02:13:23;;;;;;;2.50;0.73;;;;;;;;;;5053992;28;20987;-79
2022/05/26 02:15:53;;;;;;;0.70;0.70;;;;;;;;;;5055736;28;20445;-79
2022/05/26 02:18:21;;;;;;;2.40;0.90;;;;;;;;;;5055777;28;20465;-79
2022/05/26 02:20:51;;;;;;;1.03;0.90;;;;;;;;;;5056588;28;20453;-78
2022/05/26 02:23:23;;;;;;;1.13;1.00;;;;;;;;;;5055642;28;20939;-79
2022/05/26 02:25:50;;;;;;;1.40;0.97;;;;;;;;;;5056513;28;20834;-78
2022/05/26 02:28:17;;;;;;;2.23;0.93;;;;;;;;;;5056725;28;20469;-78
2022/05/26 02:30:44;;;;;;;1.37;0.80;;;;;;;;;;5056351;28;20528;-78
2022/05/26 02:33:13;;;;;;;1.37;0.83;;;;;;;;;;5056659;28;20445;-78
2022/05/26 02:35:42;;;;;;;1.87;1.00;;;;;;;;;;5056717;28;20541;-78
2022/05/26 02:38:13;;;;;;;1.60;0.90;;;;;;;;;;5055928;28;20872;-77
2022/05/26 02:40:41;;;;;;;0.93;0.90;;;;;;;;;;5056240;28;20481;-77
2022/05/26 02:43:11;;;;;;;1.27;1.07;;;;;;;;;;5056345;28;21023;-78
2022/05/26 02:45:42;;;;;;;1.03;0.93;;;;;;;;;;5056629;28;20834;-77
2022/05/26 02:48:13;;;;;;;1.10;1.10;;;;;;;;;;5054977;28;20496;-77
2022/05/26 02:50:45;;;;;;;1.00;1.00;;;;;;;;;;5056433;28;20449;-77
2022/05/26 02:53:19;;;;;;;0.70;0.70;;;;;;;;;;5055940;28;20522;-78
2022/05/26 02:55:54;;;;;;;1.07;1.07;;;;;;;;;;5056207;28;20446;-79
2022/05/26 02:58:25;;;;;;;2.80;1.10;;;;;;;;;;5055361;28;20557;-78
2022/05/26 03:00:54;;;;;;;1.97;1.20;;;;;;;;;;5056376;28;20434;-78
2022/05/26 03:03:26;;;;;;;1.63;0.90;;;;;;;;;;5056337;28;20851;-77
2022/05/26 03:05:55;;;;;;;1.63;1.00;;;;;;;;;;5055602;28;20485;-79
2022/05/26 03:08:27;;;;;;;1.93;1.00;;;;;;;;;;5055677;28;20536;-78
2022/05/26 03:10:55;;;;;;;0.90;0.90;;;;;;;;;;5058442;28;20797;-78
2022/05/26 03:13:22;;;;;;;1.17;1.00;;;;;;;;;;5056721;28;20437;-77
2022/05/26 03:15:50;;;;;;;2.00;1.00;;;;;;;;;;5057073;28;20488;-78
2022/05/26 03:18:17;;;;;;;3.13;1.10;;;;;;;;;;5060660;28;20466;-77
2022/05/26 03:20:44;;;;;;;2.30;1.20;;;;;;;;;;5057846;28;20449;-77
2022/05/26 03:23:11;;;;;;;1.47;0.80;;;;;;;;;;5055222;28;20806;-79
2022/05/26 03:25:40;;;;;;;1.23;1.10;;;;;;;;;;5055172;28;20538;-77
2022/05/26 03:28:07;;;;;;;4.23;1.03;;;;;;;;;;5054807;28;20469;-77
2022/05/26 03:30:34;;;;;;;1.27;1.10;;;;;;;;;;5054851;28;20430;-79
2022/05/26 03:33:01;;;;;;;1.07;1.00;;;;;;;;;;5056205;28;20971;-78
2022/05/26 03:41:12;;;;;;;1.03;1.00;;;;;;;;;;5023891;28;20428;-78
2022/05/26 03:43:40;;;;;;;1.00;0.90;;;;;;;;;;5059591;28;20438;-79
2022/05/26 03:46:07;;;;;;;1.13;0.87;;;;;;;;;;5056287;28;20761;-80
2022/05/26 03:48:35;;;;;;;1.03;0.87;;;;;;;;;;5057071;28;21007;-79
2022/05/26 03:51:04;;;;;;;1.57;1.47;;;;;;;;;;5055918;28;20458;-78
2022/05/26 03:53:33;;;;;;;2.33;1.30;;;;;;;;;;5056564;28;20449;-77
2022/05/26 03:56:00;;;;;;;1.10;1.10;;;;;;;;;;5056473;28;20441;-79
2022/05/26 03:58:28;;;;;;;2.10;1.27;;;;;;;;;;5055785;28;20465;-78
2022/05/26 04:00:55;;;;;;;1.70;1.13;;;;;;;;;;5054938;28;20959;-78
2022/05/26 04:03:22;;;;;;;1.13;1.00;;;;;;;;;;5054929;28;20491;-78
2022/05/26 04:05:49;;;;;;;1.10;0.90;;;;;;;;;;5055593;28;20469;-79
2022/05/26 04:08:17;;;;;;;1.13;0.80;;;;;;;;;;5058616;28;20981;-77
2022/05/26 04:10:44;;;;;;;1.20;1.00;;;;;;;;;;5060458;28;20449;-76
2022/05/26 04:13:11;;;;;;;1.47;0.90;;;;;;;;;;5062043;28;20489;-77
2022/05/26 04:15:39;;;;;;;0.97;0.97;;;;;;;;;;5061194;28;20441;-78
2022/05/26 04:18:07;;;;;;;2.80;1.00;;;;;;;;;;5062711;28;20473;-78
2022/05/26 04:20:34;;;;;;;1.03;0.90;;;;;;;;;;5062064;28;20472;-79
2022/05/26 04:23:01;;;;;;;1.17;1.17;;;;;;;;;;5058397;28;20450;-78
2022/05/26 04:25:29;;;;;;;2.10;0.93;;;;;;;;;;5053618;28;20527;-77
2022/05/26 04:27:56;;;;;;;3.00;1.30;;;;;;;;;;5053917;28;20454;-78
2022/05/26 04:30:24;;;;;;;1.67;1.23;;;;;;;;;;5053151;28;20945;-79
2022/05/26 04:32:53;;;;;;;1.07;1.07;;;;;;;;;;5053284;28;20430;-78
2022/05/26 04:35:20;;;;;;;1.00;1.00;;;;;;;;;;5053704;28;20480;-79
2022/05/26 04:37:48;;;;;;;1.07;1.07;;;;;;;;;;5054752;28;20448;-78
2022/05/26 04:40:15;;;;;;;1.23;1.13;;;;;;;;;;5054304;28;20536;-79
2022/05/26 04:42:42;;;;;;;1.20;1.20;;;;;;;;;;5054038;28;20453;-77
2022/05/26 04:45:10;;;;;;;1.43;1.33;;;;;;;;;;5054510;28;20534;-79
2022/05/26 04:47:37;;;;;;;1.77;1.10;;;;;;;;;;5055150;28;20541;-77
2022/05/26 04:50:07;;;;;;;1.40;1.20;;;;;;;;;;5055451;28;21002;-79
2022/05/26 04:52:34;;;;;;;1.10;1.10;;;;;;;;;;5054925;28;20816;-79
2022/05/26 04:55:01;;;;;;;1.40;1.30;;;;;;;;;;5054265;28;20445;-79
2022/05/26 04:57:28;;;;;;;1.53;1.37;;;;;;;;;;5056737;28;20487;-79
2022/05/26 04:59:55;;;;;;;0.80;0.80;;;;;;;;;;5055047;28;20461;-78
2022/05/26 05:02:23;;;;;;;1.23;1.10;;;;;;;;;;5056450;28;20447;-80
2022/05/26 05:04:50;;;;;;;1.17;0.93;;;;;;;;;;5057238;28;20949;-79
2022/05/26 05:07:19;;;;;;;1.03;1.00;;;;;;;;;;5054046;28;20897;-78
2022/05/26 05:09:47;;;;;;;1.60;1.50;;;;;;;;;;5055219;28;20453;-78
2022/05/26 05:12:16;;;;;;;1.17;1.10;;;;;;;;;;5054127;28;20491;-80
2022/05/26 05:14:44;;;;;;;4.33;1.00;;;;;;;;;;5054071;28;20809;-78
2022/05/26 05:17:11;;;;;;;1.40;1.30;;;;;;;;;;5054208;28;20449;-78
2022/05/26 05:19:38;;;;;;;2.30;1.10;;;;;;;;;;5058450;28;20470;-79
2022/05/26 05:22:07;;;;;;;1.43;1.33;;;;;;;;;;5053828;28;20844;-77
2022/05/26 05:24:36;;;;;;;1.33;1.00;;;;;;;;;;5053674;28;20441;-79
2022/05/26 05:27:06;;;;;;;1.27;1.13;;;;;;;;;;5053431;28;20989;-79
2022/05/26 05:29:35;;;;;;;1.50;0.97;;;;;;;;;;5054581;28;20527;-78
2022/05/26 05:32:03;;;;;;;2.83;1.00;;;;;;;;;;5055322;28;20867;-78
2022/05/26 05:34:34;;;;;;;1.20;1.10;;;;;;;;;;5053103;28;20453;-78
2022/05/26 05:37:01;;;;;;;4.50;1.27;;;;;;;;;;5053934;28;20521;-77
2022/05/26 05:39:28;;;;;;;1.27;1.00;;;;;;;;;;5054587;28;20461;-79
2022/05/26 05:41:57;;;;;;;1.10;1.00;;;;;;;;;;5052555;28;20451;-78
2022/05/26 05:44:24;;;;;;;0.80;0.80;;;;;;;;;;5054302;28;20460;-79
2022/05/26 05:46:58;;;;;;;0.90;0.90;;;;;;;;;;5054000;28;20576;-79
2022/05/26 05:49:25;;;;;;;1.20;1.10;;;;;;;;;;5056533;28;20476;-77
2022/05/26 05:51:53;;;;;;;1.00;1.00;;;;;;;;;;5056412;28;20453;-79
2022/05/26 05:54:20;;;;;;;1.17;0.90;;;;;;;;;;5056589;28;20544;-79
2022/05/26 05:56:48;;;;;;;1.77;1.63;;;;;;;;;;5057534;28;20434;-78
2022/05/26 05:59:16;;;;;;;3.70;1.33;;;;;;;;;;5056658;28;20804;-77
2022/05/26 06:01:44;;;;;;;1.97;1.23;;;;;;;;;;5056604;28;20947;-77
2022/05/26 06:04:11;;;;;;;1.47;0.97;;;;;;;;;;5057668;28;20449;-77
2022/05/26 06:06:38;;;;;;;1.90;1.67;;;;;;;;;;5057314;28;20504;-78
2022/05/26 06:09:06;;;;;;;1.50;0.80;;;;;;;;;;5057279;28;20519;-78
2022/05/26 06:11:33;;;;;;;1.47;1.00;;;;;;;;;;5058089;28;20568;-80
2022/05/26 06:14:00;;;;;;;1.97;1.17;;;;;;;;;;5057044;28;20445;-77
2022/05/26 06:16:30;;;;;;;1.13;1.03;;;;;;;;;;5058983;28;20442;-78
2022/05/26 06:18:57;;;;;;;1.90;1.33;;;;;;;;;;5060544;28;20469;-79
2022/05/26 06:21:24;;;;;;;1.70;1.10;;;;;;;;;;5059027;28;20457;-79
2022/05/26 06:23:53;;;;;;;2.07;1.33;;;;;;;;;;5063301;28;20775;-77
2022/05/26 06:26:21;;;;;;;1.60;0.90;;;;;;;;;;5065094;28;20484;-78
2022/05/26 06:31:34;;;;;;;1.93;1.10;;;;;;;;;;5058862;28;20417;-77
2022/05/26 06:39:30;;;;;;;1.43;0.90;;;;;;;;;;5059813;28;20487;-78
2022/05/26 06:42:06;;;;;;;1.10;1.10;;;;;;;;;;5060801;28;20511;-78
2022/05/26 06:44:33;;;;;;;2.87;0.90;;;;;;;;;;5059659;28;20441;-78
2022/05/26 06:47:02;;;;;;;0.93;0.93;;;;;;;;;;5066187;28;21019;-79
2022/05/26 06:49:29;;;;;;;3.70;1.03;;;;;;;;;;5061329;28;20457;-78
2022/05/26 06:51:56;;;;;;;1.20;1.10;;;;;;;;;;5058789;28;20445;-81
2022/05/26 06:54:23;;;;;;;1.73;1.10;;;;;;;;;;5057457;28;20441;-78
2022/05/26 06:56:50;;;;;;;1.30;1.20;;;;;;;;;;5057548;28;20453;-79
2022/05/26 06:59:17;;;;;;;1.10;1.10;;;;;;;;;;5057737;28;20472;-79
2022/05/26 07:01:44;;;;;;;1.30;1.20;;;;;;;;;;5058944;28;20448;-79
2022/05/26 07:04:13;;;;;;;4.20;1.63;;;;;;;;;;5057211;28;20454;-78
2022/05/26 07:06:40;;;;;;;1.00;0.90;;;;;;;;;;5056435;28;20857;-78
2022/05/26 07:09:07;;;;;;;0.97;0.97;;;;;;;;;;5056600;28;20470;-79
2022/05/26 07:11:34;;;;;;;2.27;1.00;;;;;;;;;;5057665;28;20453;-81
2022/05/26 07:14:01;;;;;;;2.13;1.10;;;;;;;;;;5056856;28;20539;-78
2022/05/26 07:16:28;;;;;;;1.50;0.70;;;;;;;;;;5057168;28;20844;-79
2022/05/26 07:18:55;;;;;;;1.40;1.33;;;;;;;;;;5058370;28;20463;-77
2022/05/26 07:21:24;;;;;;;1.27;0.70;;;;;;;;;;5056941;28;20675;-80
2022/05/26 07:23:51;;;;;;;1.70;0.87;;;;;;;;;;5056223;28;20445;-77
2022/05/26 07:26:18;;;;;;;1.60;1.10;;;;;;;;;;5059142;28;20552;-78
2022/05/26 07:28:45;;;;;;;1.50;0.90;;;;;;;;;;5060102;28;20474;-78
2022/05/26 07:31:14;;;;;;;1.00;0.90;;;;;;;;;;5056533;28;20441;-78
2022/05/26 07:33:42;;;;;;;1.10;1.00;;;;;;;;;;5057928;28;20536;-79
2022/05/26 07:41:16;;;;;;;3.83;0.90;;;;;;;;;;5055543;28;20461;-78
2022/05/26 07:41:43;;;;;;;1.70;0.83;;;;;;;;;;5055801;28;20528;-79
2022/05/26 07:44:10;;;;;;;1.27;0.97;;;;;;;;;;5056193;28;20425;-78
2022/05/26 07:46:38;;;;;;;1.37;1.03;;;;;;;;;;5057226;28;20551;-78
2022/05/26 07:49:06;;;;;;;1.90;0.90;;;;;;;;;;5055452;28;21011;-79
2022/05/26 07:51:33;;;;;;;2.30;1.53;;;;;;;;;;5057064;28;20449;-78
2022/05/26 07:54:01;;;;;;;2.60;1.07;;;;;;;;;;5055973;28;20914;-79
2022/05/26 07:56:29;;;;;;;1.43;1.13;;;;;;;;;;5055237;28;20442;-78
2022/05/26 07:58:56;;;;;;;1.03;1.03;;;;;;;;;;5055451;28;20545;-77
2022/05/26 08:01:23;;;;;;;1.23;0.80;;;;;;;;;;5054344;28;20744;-79
2022/05/26 08:03:53;;;;;;;1.57;1.00;;;;;;;;;;5053022;28;20511;-79
2022/05/26 08:06:20;;;;;;;1.83;1.03;;;;;;;;;;5053561;28;20484;-79
2022/05/26 08:08:47;;;;;;;1.00;0.90;;;;;;;;;;5053398;28;20462;-77
2022/05/26 08:11:15;;;;;;;3.33;1.20;;;;;;;;;;5053018;28;20450;-78
2022/05/26 08:13:42;;;;;;;1.00;1.00;;;;;;;;;;5053252;28;20454;-77
2022/05/26 08:16:09;;;;;;;1.20;1.10;;;;;;;;;;5053999;28;20497;-79
2022/05/26 08:18:36;;;;;;;2.40;0.83;;;;;;;;;;5053474;28;20449;-78
2022/05/26 08:21:07;;;;;;;1.20;1.10;;;;;;;;;;5053745;28;20445;-77
2022/05/26 08:23:34;;;;;;;1.50;1.00;;;;;;;;;;5052753;28;20467;-77
2022/05/26 08:26:01;;;;;;;2.23;1.13;;;;;;;;;;5053351;28;20446;-78
2022/05/26 08:28:29;;;;;;;1.00;0.90;;;;;;;;;;5055625;28;20925;-77
2022/05/26 08:30:57;;;;;;;1.00;0.83;;;;;;;;;;5054303;28;20445;-77
2022/05/26 08:33:24;;;;;;;2.60;1.57;;;;;;;;;;5053664;28;20449;-77
2022/05/26 08:35:51;;;;;;;2.63;0.90;;;;;;;;;;5053345;28;20870;-77
2022/05/26 08:38:18;;;;;;;1.37;0.90;;;;;;;;;;5055073;28;20469;-78
2022/05/26 08:40:49;;;;;;;1.63;1.00;;;;;;;;;;5053803;28;20928;-77
2022/05/26 08:43:18;;;;;;;1.73;1.00;;;;;;;;;;5054816;28;20919;-78
2022/05/26 08:45:49;;;;;;;1.10;0.73;;;;;;;;;;5054312;28;20449;-79
2022/05/26 08:48:17;;;;;;;0.97;0.87;;;;;;;;;;5054642;28;20477;-78
2022/05/26 08:50:44;;;;;;;1.10;1.00;;;;;;;;;;5055257;28;20461;-79
2022/05/26 08:53:12;;;;;;;1.20;0.93;;;;;;;;;;5053267;28;20454;-77
2022/05/26 08:55:43;;;;;;;1.53;1.10;;;;;;;;;;5055848;28;20791;-79
2022/05/26 08:58:11;;;;;;;1.97;1.10;;;;;;;;;;5056038;28;20469;-78
2022/05/26 09:00:39;;;;;;;1.50;0.83;;;;;;;;;;5054927;28;20437;-79
2022/05/26 09:03:19;;;;;;;1.40;1.20;;;;;;;;;;5053900;28;20507;-79
2022/05/26 09:05:47;;;;;;;0.90;0.90;;;;;;;;;;5054137;28;20437;-78
2022/05/26 09:13:48;;;;;;;2.63;0.90;;;;;;;;;;5054413;28;20421;-77
2022/05/26 09:16:15;;;;;;;1.50;0.83;;;;;;;;;;5053278;28;20828;-77
2022/05/26 09:18:44;;;;;;;1.20;1.10;;;;;;;;;;5053205;28;20476;-79
2022/05/26 09:21:16;;;;;;;2.53;1.13;;;;;;;;;;5054156;28;20445;-77
2022/05/26 09:23:46;;;;;;;1.47;0.90;;;;;;;;;;5054095;28;20438;-77
2022/05/26 09:26:16;;;;;;;1.73;1.13;;;;;;;;;;5055141;28;20922;-78
2022/05/26 09:28:45;;;;;;;4.43;1.00;;;;;;;;;;5054599;28;20531;-78
2022/05/26 09:31:22;;;;;;;0.93;0.83;;;;;;;;;;5056431;28;20441;-80
2022/05/26 09:34:05;;;;;;;2.00;1.00;;;;;;;;;;5060063;28;20442;-77
2022/05/26 09:36:36;;;;;;;1.03;0.80;;;;;;;;;;5060274;28;20449;-78
2022/05/26 09:39:04;;;;;;;1.97;1.37;;;;;;;;;;5049462;28;20462;-78
2022/05/26 09:41:37;;;;;;;1.20;1.07;;;;;;;;;;5055163;28;20437;-79
2022/05/26 09:44:06;;;;;;;0.90;0.90;;;;;;;;;;5055575;28;20449;-79
2022/05/26 09:46:33;;;;;;;1.13;1.00;;;;;;;;;;5054934;28;20512;-79
2022/05/26 09:49:07;;;;;;;2.10;0.90;;;;;;;;;;5057739;28;20458;-77
2022/05/26 09:51:43;;;;;;;3.83;1.33;;;;;;;;;;5056747;28;20446;-79
2022/05/26 09:54:21;;;;;;;0.97;0.97;;;;;;;;;;5053808;28;20441;-79
2022/05/26 09:56:48;;;;;;;0.60;0.60;;;;;;;;;;5050630;28;20456;-77
2022/05/26 09:59:25;;;;;;;3.27;1.13;;;;;;;;;;5059341;28;20469;-78
2022/05/26 10:01:54;;;;;;;2.90;1.00;;;;;;;;;;5047197;28;20449;-78
2022/05/26 10:04:28;;;;;;;1.13;0.90;;;;;;;;;;5054329;28;20464;-78
2022/05/26 10:06:59;;;;;;;0.90;0.87;;;;;;;;;;5053813;28;20567;-78
2022/05/26 10:09:33;;;;;;;0.83;0.80;;;;;;;;;;5054899;28;20534;-77
2022/05/26 10:12:07;;;;;;;1.10;1.00;;;;;;;;;;5055772;28;21006;-80
2022/05/26 10:14:40;;;;;;;1.90;1.00;;;;;;;;;;5055831;28;20448;-79
2022/05/26 10:17:11;;;;;;;2.40;1.10;;;;;;;;;;5056178;28;20433;-77
2022/05/26 10:19:56;;;;;;;1.73;1.20;;;;;;;;;;5054323;28;20491;-78
2022/05/26 10:22:29;;;;;;;1.00;1.00;;;;;;;;;;5056538;28;20449;-79
2022/05/26 10:25:14;;;;;;;1.27;1.03;;;;;;;;;;5055769;28;20956;-78
2022/05/26 10:27:50;;;;;;;0.80;0.80;;;;;;;;;;5051948;28;20488;-77
2022/05/26 10:30:31;;;;;;;3.30;1.30;;;;;;;;;;5060655;28;20453;-77
2022/05/26 10:33:12;;;;;;;1.13;0.87;;;;;;;;;;5046990;28;20446;-77
2022/05/26 10:35:43;;;;;;;0.73;0.73;;;;;;;;;;5049778;28;20446;-76
2022/05/26 10:38:24;;;;;;;1.47;1.00;;;;;;;;;;5048540;28;20458;-76
2022/05/26 10:40:55;;;;;;;2.07;1.00;;;;;;;;;;5046830;28;20446;-78
2022/05/26 10:43:24;;;;;;;2.00;1.00;;;;;;;;;;5047397;28;20465;-77
2022/05/26 10:45:52;;;;;;;1.00;1.00;;;;;;;;;;5044828;28;20568;-79
2022/05/26 10:48:23;;;;;;;0.80;0.80;;;;;;;;;;5037246;28;20513;-78
2022/05/26 10:50:52;;;;;;;3.20;1.00;;;;;;;;;;5039119;28;20533;-79
2022/05/26 10:53:23;;;;;;;0.80;0.80;;;;;;;;;;5039638;28;20504;-78
2022/05/26 10:55:54;;;;;;;0.93;0.80;;;;;;;;;;5037975;28;20866;-78
2022/05/26 10:58:24;;;;;;;1.07;1.03;;;;;;;;;;5037402;28;20467;-77
2022/05/26 11:00:54;;;;;;;0.93;0.93;;;;;;;;;;5039925;28;20442;-77
2022/05/26 11:03:24;;;;;;;1.50;1.40;;;;;;;;;;5038859;28;20476;-78
2022/05/26 11:05:54;;;;;;;1.00;1.00;;;;;;;;;;5038845;28;20434;-78
2022/05/26 11:08:31;;;;;;;0.80;0.80;;;;;;;;;;5050178;28;20564;-77
2022/05/26 11:11:00;;;;;;;1.30;1.00;;;;;;;;;;5057676;28;20521;-77
2022/05/26 11:13:36;;;;;;;2.20;0.90;;;;;;;;;;5057226;28;20933;-77
2022/05/26 11:18:53;;;;;;;1.90;1.20;;;;;;;;;;5057555;28;20436;-80
2022/05/26 11:21:21;;;;;;;1.00;1.00;;;;;;;;;;5055980;28;20452;-79
2022/05/26 11:23:50;;;;;;;1.60;1.17;;;;;;;;;;5057323;28;20441;-77
2022/05/26 11:26:35;;;;;;;0.93;0.93;;;;;;;;;;5055978;28;20441;-78
2022/05/26 11:29:20;;;;;;;1.17;0.70;;;;;;;;;;5055934;28;20485;-80
2022/05/26 11:37:50;;;;;;;1.47;1.10;;;;;;;;;;5057687;28;20441;-78
2022/05/26 11:40:50;;;;;;;1.33;1.20;;;;;;;;;;5055108;28;20450;-77
2022/05/26 11:46:34;;;;;;;1.80;1.03;;;;;;;;;;5056083;28;20884;-78
2022/05/26 11:49:03;;;;;;;0.83;0.83;;;;;;;;;;5075383;28;20495;-78
2022/05/26 11:51:40;;;;;;;2.63;1.10;;;;;;;;;;5076877;28;20453;-79
2022/05/26 11:54:08;;;;;;;2.20;1.43;;;;;;;;;;5076038;28;20510;-78
2022/05/26 11:56:40;;;;;;;1.10;1.00;;;;;;;;;;5075194;28;20929;-78
2022/05/26 11:59:23;;;;;;;0.93;0.90;;;;;;;;;;5075490;28;20522;-76
2022/05/26 12:02:12;;;;;;;1.27;1.17;;;;;;;;;;5076421;28;20944;-78
2022/05/26 12:04:42;;;;;;;1.20;1.00;;;;;;;;;;5075938;28;20960;-78
2022/05/26 12:07:34;;;;;;;3.23;1.77;;;;;;;;;;5071147;28;20450;-79
2022/05/26 12:10:02;;;;;;;1.17;1.07;;;;;;;;;;5056819;28;20449;-80
2022/05/26 12:12:33;;;;;;;2.10;1.40;;;;;;;;;;5056511;28;20502;-77
2022/05/26 12:15:03;;;;;;;3.27;1.33;;;;;;;;;;5056281;28;20537;-79
2022/05/26 12:17:35;;;;;;;1.30;1.20;;;;;;;;;;5056473;28;20970;-78
2022/05/26 12:20:06;;;;;;;2.13;1.60;;;;;;;;;;5057122;28;20453;-77
2022/05/26 12:22:34;;;;;;;2.00;1.13;;;;;;;;;;5056241;28;20449;-79
2022/05/26 12:25:16;;;;;;;1.30;1.27;;;;;;;;;;5056833;28;20524;-79
2022/05/26 12:27:57;;;;;;;1.63;1.50;;;;;;;;;;5056632;28;21020;-79
2022/05/26 12:30:54;;;;;;;1.93;1.50;;;;;;;;;;5056237;28;20451;-79
2022/05/26 12:33:27;;;;;;;2.37;2.07;;;;;;;;;;5055529;28;20426;-79
2022/05/26 12:35:59;;;;;;;1.80;1.60;;;;;;;;;;5056577;28;20520;-81
2022/05/26 12:38:31;;;;;;;2.70;1.60;;;;;;;;;;5057528;28;20457;-79
2022/05/26 12:41:03;;;;;;;2.30;1.53;;;;;;;;;;5057038;28;20437;-79
2022/05/26 12:43:54;;;;;;;2.17;1.87;;;;;;;;;;5058523;28;20892;-78
2022/05/26 12:46:32;;;;;;;4.77;1.90;;;;;;;;;;5039674;28;20456;-79
2022/05/26 12:49:05;;;;;;;2.20;1.60;;;;;;;;;;5056148;28;20515;-79
2022/05/26 12:51:37;;;;;;;4.23;2.17;;;;;;;;;;5056310;28;20557;-79
2022/05/26 12:54:07;;;;;;;1.70;1.60;;;;;;;;;;5056467;28;20445;-77
2022/05/26 12:56:47;;;;;;;1.50;1.40;;;;;;;;;;5055209;28;20940;-80
2022/05/26 12:59:14;;;;;;;2.60;1.30;;;;;;;;;;5056545;28;20557;-78
2022/05/26 13:01:41;;;;;;;1.40;1.33;;;;;;;;;;5059299;28;20481;-79
2022/05/26 13:04:10;;;;;;;1.93;1.43;;;;;;;;;;5056369;28;20442;-79
2022/05/26 13:06:40;;;;;;;1.40;1.30;;;;;;;;;;5059756;28;20446;-79
2022/05/26 13:09:10;;;;;;;3.30;1.43;;;;;;;;;;5038923;28;20548;-80
2022/05/26 13:11:43;;;;;;;1.97;1.80;;;;;;;;;;5036973;28;20501;-78
2022/05/26 13:14:17;;;;;;;1.50;1.30;;;;;;;;;;5035453;28;20443;-77
2022/05/26 13:16:44;;;;;;;1.83;1.20;;;;;;;;;;5035692;28;20442;-77
2022/05/26 13:19:13;;;;;;;3.03;1.60;;;;;;;;;;5035649;28;20458;-81
2022/05/26 13:21:42;;;;;;;2.83;1.20;;;;;;;;;;5035425;28;20446;-78
2022/05/26 13:24:16;;;;;;;1.30;1.30;;;;;;;;;;5034321;28;20438;-78
2022/05/26 13:26:44;;;;;;;3.60;1.50;;;;;;;;;;5035571;28;20499;-78
2022/05/26 13:29:11;;;;;;;2.40;2.07;;;;;;;;;;5035823;28;20639;-79
2022/05/26 13:34:27;;;;;;;1.90;1.60;;;;;;;;;;5034987;28;20418;-77
2022/05/26 13:36:56;;;;;;;1.93;1.40;;;;;;;;;;5046969;28;20456;-77
2022/05/26 13:39:24;;;;;;;2.80;2.50;;;;;;;;;;5054815;28;20496;-78
2022/05/26 13:41:54;;;;;;;3.37;1.70;;;;;;;;;;5045002;28;20960;-76
2022/05/26 13:44:35;;;;;;;3.23;1.47;;;;;;;;;;5053455;28;20481;-77
2022/05/26 13:47:06;;;;;;;3.07;1.40;;;;;;;;;;5036106;28;20524;-78
2022/05/26 13:49:37;;;;;;;1.90;1.60;;;;;;;;;;5052436;28;21007;-78
2022/05/26 13:52:09;;;;;;;2.87;2.60;;;;;;;;;;5053565;28;20451;-77
2022/05/26 13:54:41;;;;;;;2.30;2.00;;;;;;;;;;5053099;28;20450;-77
2022/05/26 13:57:16;;;;;;;2.30;1.63;;;;;;;;;;5054951;28;20544;-78
2022/05/26 13:59:45;;;;;;;4.77;4.37;;;;;;;;;;5054616;28;20556;-79
2022/05/26 14:02:27;;;;;;;5.37;3.70;;;;;;;;;;5054697;28;20579;-79
2022/05/26 14:07:50;;;;;;;10.03;7.70;;;;;;;;;;5053781;28;20472;-78
2022/05/26 14:10:22;;;;;;;2.30;1.57;;;;;;;;;;5059620;28;20524;-77
2022/05/26 14:13:00;;;;;;;2.00;1.80;;;;;;;;;;5058408;28;20457;-78
2022/05/26 14:15:41;;;;;;;1.73;1.50;;;;;;;;;;5058611;28;20457;-77
2022/05/26 14:18:09;;;;;;;1.43;1.30;;;;;;;;;;5059045;28;20487;-78
2022/05/26 14:20:36;;;;;;;2.20;1.30;;;;;;;;;;5059081;28;20449;-80
2022/05/26 14:23:05;;;;;;;1.67;1.40;;;;;;;;;;5058140;28;20511;-77
2022/05/26 14:25:32;;;;;;;4.30;1.63;;;;;;;;;;5058510;28;20445;-78
2022/05/26 14:28:01;;;;;;;2.07;1.70;;;;;;;;;;5060116;28;20462;-79
2022/05/26 14:30:30;;;;;;;1.63;1.53;;;;;;;;;;5059401;28;20960;-78
2022/05/26 14:32:57;;;;;;;3.13;1.30;;;;;;;;;;5058559;28;20507;-78
2022/05/26 14:35:24;;;;;;;1.53;1.43;;;;;;;;;;5058202;28;20437;-78
2022/05/26 14:37:51;;;;;;;2.67;1.57;;;;;;;;;;5058436;28;20442;-80
2022/05/26 14:40:20;;;;;;;3.30;1.53;;;;;;;;;;5057486;28;20468;-79
2022/05/26 14:42:51;;;;;;;1.30;1.20;;;;;;;;;;5057003;28;20530;-78
2022/05/26 14:45:42;;;;;;;2.43;2.23;;;;;;;;;;5039565;28;20936;-79
2022/05/26 14:48:11;;;;;;;3.17;2.40;;;;;;;;;;5058577;28;20481;-80
2022/05/26 14:50:45;;;;;;;1.17;1.17;;;;;;;;;;5040774;28;20552;-80
2022/05/26 14:55:26;;;;;;;1.33;1.07;;;;;;;;;;5059519;28;20430;-79
2022/05/26 14:56:44;;;;;;;1.47;1.37;;;;;;;;;;5058810;28;20444;-78
2022/05/26 15:02:08;;;;;;;1.73;1.40;;;;;;;;;;5059094;28;20489;-78
2022/05/26 15:04:35;;;;;;;2.63;1.20;;;;;;;;;;5057916;28;20469;-78
2022/05/26 15:07:02;;;;;;;2.77;1.30;;;;;;;;;;5054197;28;20961;-78
2022/05/26 15:09:30;;;;;;;1.83;1.30;;;;;;;;;;5051217;28;20485;-76
2022/05/26 15:12:00;;;;;;;1.10;1.00;;;;;;;;;;5051954;28;20457;-78
2022/05/26 15:14:28;;;;;;;1.30;1.20;;;;;;;;;;5051063;28;20891;-78
2022/05/26 15:16:57;;;;;;;1.10;1.10;;;;;;;;;;5051664;28;20998;-78
2022/05/26 15:19:27;;;;;;;1.20;1.20;;;;;;;;;;5047923;28;20523;-78
2022/05/26 15:21:56;;;;;;;1.57;1.07;;;;;;;;;;5052014;28;20564;-78
2022/05/26 15:24:24;;;;;;;1.30;1.20;;;;;;;;;;5051104;28;20508;-78
2022/05/26 15:26:51;;;;;;;3.47;1.40;;;;;;;;;;5054683;28;20441;-78
2022/05/26 15:29:20;;;;;;;1.40;1.10;;;;;;;;;;5056907;28;20921;-80
2022/05/26 15:31:47;;;;;;;2.33;1.20;;;;;;;;;;5051310;28;20446;-78
2022/05/26 15:34:14;;;;;;;1.87;1.23;;;;;;;;;;5049209;28;20444;-79
2022/05/26 15:36:42;;;;;;;1.30;1.20;;;;;;;;;;5047728;28;20446;-79
2022/05/26 15:39:10;;;;;;;3.03;1.40;;;;;;;;;;5053307;28;20461;-78
2022/05/26 15:41:37;;;;;;;1.37;1.27;;;;;;;;;;5049699;28;20434;-78
2022/05/26 15:44:04;;;;;;;1.70;1.20;;;;;;;;;;5052196;28;20831;-80